CQH2703 ZSJN-ZYTL
Flight info
| Callsign | CQH2703 |
|---|---|
| Flight time | 0h 43m |
| Altitude | 29100 |
| Route | WFG81D WFG DCT GUTVO DCT HCH W173 NIXEP NIX07A |
| Aircraft | A320/M-SDE3FGHIRWY/LB1 |
Departure
| Time | 2026-04-16 14:44 |
|---|---|
| Airport | Jinan Yaoqiang International Airport (ZSJN) |
Arrival
| Time | 2026-04-16 15:27 |
|---|---|
| Airport | Dalian Zhoushuizi International Airport (ZYTL) |
| Time | Latitude | Longitude | Altitude | Speed | Heading |
|---|---|---|---|---|---|
| 2026-04-16 14:04 | 36.85256 | 117.20870 | 78 ft | 0 kts | 270° |
| 2026-04-16 14:32 | 36.85256 | 117.20875 | 84 ft | 2 kts | 270° |
| 2026-04-16 14:32 | 36.85256 | 117.20898 | 83 ft | 3 kts | 270° |
| 2026-04-16 14:32 | 36.85257 | 117.20923 | 84 ft | 3 kts | 269° |
| 2026-04-16 14:32 | 36.85257 | 117.20946 | 84 ft | 3 kts | 248° |
| 2026-04-16 14:33 | 36.85268 | 117.20966 | 86 ft | 3 kts | 220° |
| 2026-04-16 14:33 | 36.85283 | 117.20980 | 84 ft | 3 kts | 203° |
| 2026-04-16 14:33 | 36.85302 | 117.20987 | 83 ft | 3 kts | 179° |
| 2026-04-16 14:33 | 36.85322 | 117.20984 | 84 ft | 3 kts | 169° |
| 2026-04-16 14:34 | 36.85340 | 117.20981 | 85 ft | 2 kts | 179° |
| 2026-04-16 14:34 | 36.85346 | 117.20981 | 83 ft | 0 kts | 180° |
| 2026-04-16 14:36 | 36.85341 | 117.20981 | 84 ft | 3 kts | 180° |
| 2026-04-16 14:36 | 36.85341 | 117.20998 | 83 ft | 4 kts | 68° |
| 2026-04-16 14:36 | 36.85371 | 117.21049 | 85 ft | 10 kts | 57° |
| 2026-04-16 14:37 | 36.85409 | 117.21155 | 83 ft | 16 kts | 68° |
| 2026-04-16 14:37 | 36.85440 | 117.21252 | 83 ft | 1 kts | 65° |
| 2026-04-16 14:37 | 36.85454 | 117.21287 | 82 ft | 8 kts | 64° |
| 2026-04-16 14:37 | 36.85470 | 117.21329 | 85 ft | 4 kts | 62° |
| 2026-04-16 14:38 | 36.85502 | 117.21366 | 81 ft | 9 kts | 31° |
| 2026-04-16 14:38 | 36.85583 | 117.21374 | 84 ft | 15 kts | 3° |
| 2026-04-16 14:38 | 36.85703 | 117.21370 | 86 ft | 20 kts | 358° |
| 2026-04-16 14:38 | 36.85841 | 117.21372 | 83 ft | 10 kts | 360° |
| 2026-04-16 14:39 | 36.85844 | 117.21372 | 83 ft | 0 kts | 0° |
| 2026-04-16 14:40 | 36.85881 | 117.21372 | 84 ft | 7 kts | 0° |
| 2026-04-16 14:40 | 36.85923 | 117.21372 | 82 ft | 5 kts | 0° |
| 2026-04-16 14:40 | 36.85980 | 117.21373 | 84 ft | 16 kts | 1° |
| 2026-04-16 14:40 | 36.86161 | 117.21373 | 84 ft | 35 kts | 360° |
| 2026-04-16 14:41 | 36.86444 | 117.21371 | 82 ft | 47 kts | 359° |
| 2026-04-16 14:41 | 36.86679 | 117.21371 | 82 ft | 53 kts | 0° |
| 2026-04-16 14:41 | 36.87107 | 117.21371 | 83 ft | 37 kts | 0° |
| 2026-04-16 14:41 | 36.87235 | 117.21372 | 86 ft | 19 kts | 1° |
| 2026-04-16 14:42 | 36.87341 | 117.21470 | 84 ft | 6 kts | 92° |
| 2026-04-16 14:42 | 36.87341 | 117.21480 | 84 ft | 1 kts | 92° |
| 2026-04-16 14:42 | 36.87340 | 117.21498 | 85 ft | 9 kts | 92° |
| 2026-04-16 14:42 | 36.87274 | 117.21594 | 89 ft | 10 kts | 177° |
| 2026-04-16 14:43 | 36.87190 | 117.21594 | 90 ft | 31 kts | 180° |
| 2026-04-16 14:43 | 36.86472 | 117.21594 | 85 ft | 119 kts | 180° |
| 2026-04-16 14:43 | 36.85831 | 117.21598 | 88 ft | 152 kts | 180° |
| 2026-04-16 14:43 | 36.84681 | 117.21591 | 299 ft | 176 kts | 180° |
| 2026-04-16 14:44 | 36.83439 | 117.21570 | 944 ft | 178 kts | 179° |
| 2026-04-16 14:44 | 36.82209 | 117.21617 | 1743 ft | 175 kts | 178° |
| 2026-04-16 14:44 | 36.81015 | 117.22098 | 2247 ft | 196 kts | 143° |
| 2026-04-16 14:44 | 36.80370 | 117.23651 | 2698 ft | 218 kts | 99° |
| 2026-04-16 14:45 | 36.80422 | 117.25646 | 3057 ft | 243 kts | 85° |
| 2026-04-16 14:45 | 36.80671 | 117.27796 | 3750 ft | 255 kts | 81° |
| 2026-04-16 14:45 | 36.80971 | 117.29996 | 4641 ft | 258 kts | 79° |
| 2026-04-16 14:45 | 36.81270 | 117.32214 | 5558 ft | 260 kts | 77° |
| 2026-04-16 14:46 | 36.81902 | 117.34299 | 6501 ft | 257 kts | 54° |
| 2026-04-16 14:46 | 36.83020 | 117.36091 | 7121 ft | 271 kts | 52° |
| 2026-04-16 14:46 | 36.83693 | 117.38332 | 7793 ft | 286 kts | 82° |
| 2026-04-16 14:46 | 36.83905 | 117.40814 | 8626 ft | 289 kts | 74° |
| 2026-04-16 14:47 | 36.84456 | 117.43231 | 9490 ft | 291 kts | 69° |
| 2026-04-16 14:47 | 36.85131 | 117.45631 | 10270 ft | 296 kts | 67° |
| 2026-04-16 14:47 | 36.85881 | 117.48126 | 10565 ft | 319 kts | 66° |
| 2026-04-16 14:47 | 36.86693 | 117.50817 | 10795 ft | 343 kts | 67° |
| 2026-04-16 14:48 | 36.87544 | 117.53703 | 10966 ft | 366 kts | 68° |
| 2026-04-16 14:48 | 36.88415 | 117.56752 | 11413 ft | 377 kts | 68° |
| 2026-04-16 14:48 | 36.89281 | 117.59880 | 12054 ft | 383 kts | 69° |
| 2026-04-16 14:48 | 36.90132 | 117.63011 | 12700 ft | 389 kts | 69° |
| 2026-04-16 14:49 | 36.91000 | 117.66230 | 13354 ft | 394 kts | 69° |
| 2026-04-16 14:49 | 36.91880 | 117.69490 | 13987 ft | 398 kts | 69° |
| 2026-04-16 14:49 | 36.92773 | 117.72787 | 14541 ft | 403 kts | 69° |
| 2026-04-16 14:49 | 36.93680 | 117.76124 | 15102 ft | 408 kts | 69° |
| 2026-04-16 14:50 | 36.94600 | 117.79505 | 15641 ft | 413 kts | 69° |
| 2026-04-16 14:50 | 36.95527 | 117.82917 | 16168 ft | 417 kts | 69° |
| 2026-04-16 14:50 | 36.96467 | 117.86376 | 16702 ft | 422 kts | 69° |
| 2026-04-16 14:50 | 36.97416 | 117.89870 | 17215 ft | 427 kts | 69° |
| 2026-04-16 14:51 | 36.98375 | 117.93403 | 17733 ft | 431 kts | 69° |
| 2026-04-16 14:51 | 36.99342 | 117.96972 | 18247 ft | 436 kts | 69° |
| 2026-04-16 14:51 | 37.00318 | 118.00581 | 18690 ft | 440 kts | 69° |
| 2026-04-16 14:51 | 37.01299 | 118.04229 | 19129 ft | 444 kts | 69° |
| 2026-04-16 14:53 | 37.08378 | 118.30641 | 22065 ft | 470 kts | 70° |
| 2026-04-16 14:53 | 37.09415 | 118.34538 | 22469 ft | 474 kts | 70° |
| 2026-04-16 14:54 | 37.10460 | 118.38468 | 22839 ft | 478 kts | 70° |
| 2026-04-16 14:54 | 37.11512 | 118.42433 | 23208 ft | 481 kts | 70° |
| 2026-04-16 14:54 | 37.12569 | 118.46421 | 23590 ft | 484 kts | 70° |
| 2026-04-16 14:54 | 37.13633 | 118.50439 | 23903 ft | 487 kts | 70° |
| 2026-04-16 14:55 | 37.14687 | 118.54432 | 24227 ft | 490 kts | 70° |
| 2026-04-16 14:55 | 37.15757 | 118.58497 | 24550 ft | 493 kts | 70° |
| 2026-04-16 14:55 | 37.16833 | 118.62590 | 24863 ft | 495 kts | 70° |
| 2026-04-16 14:55 | 37.17914 | 118.66701 | 25169 ft | 498 kts | 71° |
| 2026-04-16 14:56 | 37.19002 | 118.70838 | 25464 ft | 500 kts | 71° |
| 2026-04-16 14:56 | 37.20092 | 118.74992 | 25745 ft | 503 kts | 71° |
| 2026-04-16 14:56 | 37.21186 | 118.79168 | 26037 ft | 505 kts | 71° |
| 2026-04-16 14:56 | 37.22284 | 118.83364 | 26336 ft | 507 kts | 71° |
| 2026-04-16 14:57 | 37.23382 | 118.87576 | 26638 ft | 509 kts | 71° |
| 2026-04-16 14:57 | 37.24485 | 118.91812 | 26925 ft | 511 kts | 71° |
| 2026-04-16 14:57 | 37.25590 | 118.96063 | 27208 ft | 513 kts | 71° |
| 2026-04-16 14:57 | 37.26699 | 119.00324 | 27575 ft | 513 kts | 71° |
| 2026-04-16 14:58 | 37.27803 | 119.04580 | 27992 ft | 512 kts | 72° |
| 2026-04-16 14:58 | 37.29998 | 119.13082 | 28788 ft | 512 kts | 72° |
| 2026-04-16 14:58 | 37.31080 | 119.17278 | 29080 ft | 512 kts | 72° |
| 2026-04-16 14:59 | 37.32176 | 119.21537 | 29150 ft | 514 kts | 72° |
| 2026-04-16 14:59 | 37.34384 | 119.30085 | 29149 ft | 515 kts | 72° |
| 2026-04-16 15:00 | 37.36591 | 119.38651 | 29146 ft | 515 kts | 73° |
| 2026-04-16 15:00 | 37.38780 | 119.47229 | 29143 ft | 515 kts | 73° |
| 2026-04-16 15:01 | 37.40953 | 119.55816 | 29145 ft | 515 kts | 73° |
| 2026-04-16 15:01 | 37.43133 | 119.64397 | 29140 ft | 515 kts | 73° |
| 2026-04-16 15:02 | 37.45299 | 119.72979 | 29143 ft | 514 kts | 74° |
| 2026-04-16 15:02 | 37.47447 | 119.81563 | 29143 ft | 514 kts | 74° |
| 2026-04-16 15:03 | 37.49577 | 119.90087 | 29140 ft | 514 kts | 74° |
| 2026-04-16 15:03 | 37.51728 | 119.98678 | 29130 ft | 514 kts | 75° |
| 2026-04-16 15:04 | 37.53871 | 120.07261 | 29135 ft | 514 kts | 75° |
| 2026-04-16 15:04 | 37.56010 | 120.15868 | 29125 ft | 514 kts | 75° |
| 2026-04-16 15:05 | 37.58134 | 120.24469 | 29132 ft | 514 kts | 75° |
| 2026-04-16 15:05 | 37.60253 | 120.33076 | 29135 ft | 514 kts | 76° |
| 2026-04-16 15:06 | 37.62368 | 120.41687 | 29135 ft | 514 kts | 76° |
| 2026-04-16 15:06 | 37.65181 | 120.50003 | 29138 ft | 519 kts | 59° |
| 2026-04-16 15:07 | 37.69815 | 120.56971 | 29130 ft | 521 kts | 40° |
| 2026-04-16 15:07 | 37.75811 | 120.62076 | 29136 ft | 520 kts | 28° |
| 2026-04-16 15:08 | 37.82055 | 120.66696 | 29140 ft | 520 kts | 29° |
| 2026-04-16 15:08 | 37.88300 | 120.71341 | 29136 ft | 521 kts | 29° |
| 2026-04-16 15:09 | 37.94545 | 120.75990 | 29143 ft | 521 kts | 29° |
| 2026-04-16 15:09 | 38.00796 | 120.80641 | 29137 ft | 521 kts | 29° |
| 2026-04-16 15:10 | 38.07043 | 120.85308 | 28863 ft | 521 kts | 30° |
| 2026-04-16 15:10 | 38.10143 | 120.87636 | 27478 ft | 528 kts | 30° |
| 2026-04-16 15:10 | 38.13325 | 120.90031 | 26215 ft | 534 kts | 30° |
| 2026-04-16 15:10 | 38.16525 | 120.92431 | 25167 ft | 534 kts | 30° |
| 2026-04-16 15:11 | 38.19658 | 120.94879 | 24543 ft | 524 kts | 34° |
| 2026-04-16 15:11 | 38.22477 | 120.97774 | 23692 ft | 520 kts | 44° |
| 2026-04-16 15:11 | 38.24891 | 121.01152 | 22880 ft | 512 kts | 53° |
| 2026-04-16 15:11 | 38.26883 | 121.04855 | 22120 ft | 503 kts | 61° |
| 2026-04-16 15:12 | 38.28457 | 121.08790 | 21375 ft | 495 kts | 67° |
| 2026-04-16 15:12 | 38.29856 | 121.12771 | 20631 ft | 490 kts | 67° |
| 2026-04-16 15:12 | 38.31235 | 121.16709 | 19940 ft | 484 kts | 66° |
| 2026-04-16 15:12 | 38.32591 | 121.20607 | 19264 ft | 479 kts | 66° |
| 2026-04-16 15:13 | 38.33929 | 121.24469 | 18605 ft | 474 kts | 66° |
| 2026-04-16 15:13 | 38.35252 | 121.28290 | 17897 ft | 469 kts | 66° |
| 2026-04-16 15:13 | 38.36560 | 121.32073 | 17175 ft | 464 kts | 66° |
| 2026-04-16 15:13 | 38.37852 | 121.35825 | 16490 ft | 459 kts | 66° |
| 2026-04-16 15:14 | 38.39134 | 121.39534 | 15819 ft | 455 kts | 65° |
| 2026-04-16 15:14 | 38.40670 | 121.43031 | 15158 ft | 450 kts | 56° |
| 2026-04-16 15:14 | 38.42606 | 121.46128 | 14499 ft | 445 kts | 46° |
| 2026-04-16 15:14 | 38.44860 | 121.48727 | 13855 ft | 441 kts | 36° |
| 2026-04-16 15:15 | 38.47389 | 121.50898 | 13121 ft | 436 kts | 31° |
| 2026-04-16 15:15 | 38.49923 | 121.52982 | 12423 ft | 432 kts | 32° |
| 2026-04-16 15:15 | 38.52427 | 121.55058 | 11751 ft | 427 kts | 33° |
| 2026-04-16 15:15 | 38.54900 | 121.57120 | 11099 ft | 422 kts | 34° |
| 2026-04-16 15:16 | 38.57334 | 121.59152 | 10709 ft | 410 kts | 34° |
| 2026-04-16 15:16 | 38.59683 | 121.61078 | 10588 ft | 393 kts | 31° |
| 2026-04-16 15:16 | 38.62081 | 121.62609 | 10377 ft | 377 kts | 26° |
| 2026-04-16 15:16 | 38.64383 | 121.63967 | 10136 ft | 353 kts | 26° |
| 2026-04-16 15:17 | 38.66542 | 121.65233 | 9955 ft | 329 kts | 26° |
| 2026-04-16 15:17 | 38.68572 | 121.66425 | 9819 ft | 316 kts | 26° |
| 2026-04-16 15:17 | 38.70559 | 121.67596 | 9684 ft | 313 kts | 26° |
| 2026-04-16 15:17 | 38.72536 | 121.68765 | 9563 ft | 312 kts | 26° |
| 2026-04-16 15:18 | 38.74502 | 121.69930 | 9424 ft | 311 kts | 26° |
| 2026-04-16 15:18 | 38.76459 | 121.71094 | 9291 ft | 309 kts | 26° |
| 2026-04-16 15:18 | 38.78381 | 121.72241 | 9151 ft | 309 kts | 26° |
| 2026-04-16 15:18 | 38.80330 | 121.73403 | 8582 ft | 309 kts | 26° |
| 2026-04-16 15:19 | 38.82261 | 121.74566 | 7950 ft | 305 kts | 29° |
| 2026-04-16 15:19 | 38.83911 | 121.76195 | 7320 ft | 297 kts | 52° |
| 2026-04-16 15:19 | 38.84943 | 121.78424 | 6704 ft | 288 kts | 74° |
| 2026-04-16 15:19 | 38.85273 | 121.80901 | 6068 ft | 278 kts | 95° |
| 2026-04-16 15:20 | 38.85102 | 121.83345 | 5431 ft | 273 kts | 99° |
| 2026-04-16 15:20 | 38.85126 | 121.85757 | 4798 ft | 272 kts | 75° |
| 2026-04-16 15:20 | 38.86130 | 121.87718 | 4477 ft | 258 kts | 36° |
| 2026-04-16 15:20 | 38.87713 | 121.88507 | 4338 ft | 238 kts | 2° |
| 2026-04-16 15:21 | 38.89359 | 121.88571 | 4219 ft | 236 kts | 2° |
| 2026-04-16 15:21 | 38.91000 | 121.88748 | 4095 ft | 236 kts | 1° |
| 2026-04-16 15:21 | 38.92576 | 121.88399 | 3963 ft | 229 kts | 330° |
| 2026-04-16 15:21 | 38.93722 | 121.87061 | 3842 ft | 222 kts | 296° |
| 2026-04-16 15:22 | 38.94140 | 121.85193 | 3715 ft | 219 kts | 273° |
| 2026-04-16 15:22 | 38.94279 | 121.83246 | 3594 ft | 219 kts | 274° |
| 2026-04-16 15:22 | 38.94423 | 121.81297 | 3469 ft | 219 kts | 274° |
| 2026-04-16 15:22 | 38.94569 | 121.79354 | 3341 ft | 219 kts | 274° |
| 2026-04-16 15:23 | 38.94717 | 121.77412 | 3219 ft | 218 kts | 274° |
| 2026-04-16 15:23 | 38.94870 | 121.75510 | 3124 ft | 214 kts | 275° |
| 2026-04-16 15:23 | 38.95025 | 121.73625 | 2909 ft | 212 kts | 275° |
| 2026-04-16 15:23 | 38.95173 | 121.71773 | 2666 ft | 204 kts | 274° |
| 2026-04-16 15:24 | 38.95312 | 121.70014 | 2383 ft | 192 kts | 274° |
| 2026-04-16 15:24 | 38.95443 | 121.68340 | 2132 ft | 185 kts | 274° |
| 2026-04-16 15:24 | 38.95568 | 121.66747 | 1901 ft | 172 kts | 274° |
| 2026-04-16 15:24 | 38.95683 | 121.65272 | 1666 ft | 160 kts | 274° |
| 2026-04-16 15:25 | 38.95791 | 121.63892 | 1460 ft | 152 kts | 274° |
| 2026-04-16 15:25 | 38.95894 | 121.62557 | 1256 ft | 148 kts | 274° |
| 2026-04-16 15:25 | 38.95994 | 121.61278 | 1062 ft | 142 kts | 274° |
| 2026-04-16 15:25 | 38.96091 | 121.60024 | 855 ft | 140 kts | 275° |
| 2026-04-16 15:26 | 38.96187 | 121.58781 | 663 ft | 139 kts | 276° |
| 2026-04-16 15:26 | 38.96282 | 121.57552 | 469 ft | 138 kts | 276° |
| 2026-04-16 15:26 | 38.96376 | 121.56333 | 285 ft | 136 kts | 276° |
| 2026-04-16 15:26 | 38.96470 | 121.55127 | 159 ft | 133 kts | 276° |
| 2026-04-16 15:27 | 38.96552 | 121.54102 | 150 ft | 93 kts | 275° |
| 2026-04-16 15:27 | 38.96588 | 121.53508 | 150 ft | 35 kts | 272° |
| 2026-04-16 15:27 | 38.96551 | 121.53249 | 150 ft | 23 kts | 246° |
| 2026-04-16 15:27 | 38.96480 | 121.53097 | 150 ft | 17 kts | 214° |
| 2026-04-16 15:28 | 38.96392 | 121.53100 | 150 ft | 7 kts | 113° |
| 2026-04-16 15:28 | 38.96404 | 121.53134 | 150 ft | 7 kts | 62° |
| 2026-04-16 15:28 | 38.96425 | 121.53243 | 150 ft | 18 kts | 82° |
| 2026-04-16 15:28 | 38.96427 | 121.53408 | 150 ft | 19 kts | 96° |
| 2026-04-16 15:29 | 38.96413 | 121.53581 | 150 ft | 20 kts | 96° |
| 2026-04-16 15:29 | 38.96399 | 121.53764 | 150 ft | 11 kts | 95° |
| 2026-04-16 15:29 | 38.96367 | 121.53798 | 150 ft | 5 kts | 171° |
| 2026-04-16 15:29 | 38.96338 | 121.53805 | 150 ft | 3 kts | 139° |
| 2026-04-16 15:30 | 38.96326 | 121.53829 | 150 ft | 5 kts | 116° |
| 2026-04-16 15:30 | 38.96287 | 121.53858 | 150 ft | 7 kts | 179° |
| 2026-04-16 15:30 | 38.96242 | 121.53856 | 150 ft | 0 kts | 181° |
| 2026-04-16 15:31 | 38.96241 | 121.53856 | 150 ft | 0 kts | 182° |